sensor_id;sensor_type;location;lat;lon;timestamp;temperature;humidity
29031;DHT22;16122;50.236;11.734;2023-09-30T00:02:12;21.20;90.80
29031;DHT22;16122;50.236;11.734;2023-09-30T00:04:38;21.20;90.80
29031;DHT22;16122;50.236;11.734;2023-09-30T00:07:04;21.20;90.60
29031;DHT22;16122;50.236;11.734;2023-09-30T00:09:31;21.20;90.60
29031;DHT22;16122;50.236;11.734;2023-09-30T00:11:57;21.20;90.60
29031;DHT22;16122;50.236;11.734;2023-09-30T00:14:23;21.20;90.60
29031;DHT22;16122;50.236;11.734;2023-09-30T00:16:48;21.20;90.60
29031;DHT22;16122;50.236;11.734;2023-09-30T00:19:16;21.20;90.50
29031;DHT22;16122;50.236;11.734;2023-09-30T00:21:42;21.20;90.50
29031;DHT22;16122;50.236;11.734;2023-09-30T00:24:08;21.20;90.50
29031;DHT22;16122;50.236;11.734;2023-09-30T00:26:35;21.20;90.50
29031;DHT22;16122;50.236;11.734;2023-09-30T00:29:01;21.20;90.80
29031;DHT22;16122;50.236;11.734;2023-09-30T00:31:31;21.20;90.40
29031;DHT22;16122;50.236;11.734;2023-09-30T00:33:57;21.20;90.40
29031;DHT22;16122;50.236;11.734;2023-09-30T00:36:23;21.10;90.30
29031;DHT22;16122;50.236;11.734;2023-09-30T00:38:49;21.20;90.30
29031;DHT22;16122;50.236;11.734;2023-09-30T00:41:15;21.10;90.20
29031;DHT22;16122;50.236;11.734;2023-09-30T00:43:40;21.10;90.20
29031;DHT22;16122;50.236;11.734;2023-09-30T00:46:14;21.10;90.20
29031;DHT22;16122;50.236;11.734;2023-09-30T00:48:42;21.10;90.20
29031;DHT22;16122;50.236;11.734;2023-09-30T00:51:09;21.10;90.20
29031;DHT22;16122;50.236;11.734;2023-09-30T00:53:34;21.10;90.50
29031;DHT22;16122;50.236;11.734;2023-09-30T00:56:00;21.10;90.10
29031;DHT22;16122;50.236;11.734;2023-09-30T00:58:27;21.10;90.10
29031;DHT22;16122;50.236;11.734;2023-09-30T01:00:56;21.10;90.10
29031;DHT22;16122;50.236;11.734;2023-09-30T01:03:22;21.10;90.00
29031;DHT22;16122;50.236;11.734;2023-09-30T01:05:49;21.10;90.00
29031;DHT22;16122;50.236;11.734;2023-09-30T01:08:16;21.10;90.00
29031;DHT22;16122;50.236;11.734;2023-09-30T01:10:42;21.10;90.00
29031;DHT22;16122;50.236;11.734;2023-09-30T01:13:08;21.10;90.00
29031;DHT22;16122;50.236;11.734;2023-09-30T01:15:35;21.10;90.00
29031;DHT22;16122;50.236;11.734;2023-09-30T01:18:03;21.10;90.00
29031;DHT22;16122;50.236;11.734;2023-09-30T01:20:29;21.10;89.90
29031;DHT22;16122;50.236;11.734;2023-09-30T01:22:57;21.10;89.90
29031;DHT22;16122;50.236;11.734;2023-09-30T01:25:24;21.10;89.80
29031;DHT22;16122;50.236;11.734;2023-09-30T01:27:50;21.10;89.80
29031;DHT22;16122;50.236;11.734;2023-09-30T01:30:19;21.00;89.60
29031;DHT22;16122;50.236;11.734;2023-09-30T01:32:47;21.00;89.50
29031;DHT22;16122;50.236;11.734;2023-09-30T01:35:15;21.00;89.50
29031;DHT22;16122;50.236;11.734;2023-09-30T01:37:40;21.00;89.40
29031;DHT22;16122;50.236;11.734;2023-09-30T01:40:07;21.00;89.40
29031;DHT22;16122;50.236;11.734;2023-09-30T01:42:33;21.00;89.30
29031;DHT22;16122;50.236;11.734;2023-09-30T01:45:02;21.00;89.20
29031;DHT22;16122;50.236;11.734;2023-09-30T01:47:28;21.00;89.20
29031;DHT22;16122;50.236;11.734;2023-09-30T01:49:53;21.00;89.20
29031;DHT22;16122;50.236;11.734;2023-09-30T01:52:20;21.00;89.10
29031;DHT22;16122;50.236;11.734;2023-09-30T01:54:46;21.00;89.10
29031;DHT22;16122;50.236;11.734;2023-09-30T01:57:13;21.00;89.00
29031;DHT22;16122;50.236;11.734;2023-09-30T01:59:39;21.00;88.90
29031;DHT22;16122;50.236;11.734;2023-09-30T02:02:05;21.00;88.90
29031;DHT22;16122;50.236;11.734;2023-09-30T02:04:31;21.00;88.80
29031;DHT22;16122;50.236;11.734;2023-09-30T02:06:56;21.00;88.70
29031;DHT22;16122;50.236;11.734;2023-09-30T02:09:22;21.00;88.70
29031;DHT22;16122;50.236;11.734;2023-09-30T02:11:48;21.00;88.60
29031;DHT22;16122;50.236;11.734;2023-09-30T02:14:14;20.90;88.50
29031;DHT22;16122;50.236;11.734;2023-09-30T02:16:40;20.90;88.40
29031;DHT22;16122;50.236;11.734;2023-09-30T02:19:05;20.90;88.30
29031;DHT22;16122;50.236;11.734;2023-09-30T02:21:32;20.90;88.30
29031;DHT22;16122;50.236;11.734;2023-09-30T02:23:58;20.90;88.30
29031;DHT22;16122;50.236;11.734;2023-09-30T02:26:23;20.90;88.30
29031;DHT22;16122;50.236;11.734;2023-09-30T02:28:51;20.90;88.20
29031;DHT22;16122;50.236;11.734;2023-09-30T02:31:19;20.90;88.10
29031;DHT22;16122;50.236;11.734;2023-09-30T02:33:44;20.90;88.10
29031;DHT22;16122;50.236;11.734;2023-09-30T02:36:10;20.90;88.00
29031;DHT22;16122;50.236;11.734;2023-09-30T02:38:38;20.90;88.00
29031;DHT22;16122;50.236;11.734;2023-09-30T02:41:04;20.90;88.00
29031;DHT22;16122;50.236;11.734;2023-09-30T02:43:30;20.90;87.90
29031;DHT22;16122;50.236;11.734;2023-09-30T02:45:56;20.90;87.90
29031;DHT22;16122;50.236;11.734;2023-09-30T02:48:23;20.90;87.80
29031;DHT22;16122;50.236;11.734;2023-09-30T02:50:48;20.90;87.80
29031;DHT22;16122;50.236;11.734;2023-09-30T02:53:14;20.90;87.70
29031;DHT22;16122;50.236;11.734;2023-09-30T02:55:41;20.90;87.70
29031;DHT22;16122;50.236;11.734;2023-09-30T02:58:07;20.90;87.60
29031;DHT22;16122;50.236;11.734;2023-09-30T03:00:35;20.90;87.60
29031;DHT22;16122;50.236;11.734;2023-09-30T03:03:02;20.90;87.50
29031;DHT22;16122;50.236;11.734;2023-09-30T03:05:28;20.80;87.40
29031;DHT22;16122;50.236;11.734;2023-09-30T03:07:56;20.90;87.40
29031;DHT22;16122;50.236;11.734;2023-09-30T03:10:22;20.80;87.20
29031;DHT22;16122;50.236;11.734;2023-09-30T03:12:53;20.80;87.20
29031;DHT22;16122;50.236;11.734;2023-09-30T03:15:19;20.80;87.20
29031;DHT22;16122;50.236;11.734;2023-09-30T03:17:46;20.80;87.10
29031;DHT22;16122;50.236;11.734;2023-09-30T03:20:12;20.80;87.00
29031;DHT22;16122;50.236;11.734;2023-09-30T03:22:39;20.80;87.00
29031;DHT22;16122;50.236;11.734;2023-09-30T03:25:07;20.80;86.90
29031;DHT22;16122;50.236;11.734;2023-09-30T03:27:33;20.80;86.90
29031;DHT22;16122;50.236;11.734;2023-09-30T03:29:59;20.80;86.80
29031;DHT22;16122;50.236;11.734;2023-09-30T03:32:27;20.80;86.70
29031;DHT22;16122;50.236;11.734;2023-09-30T03:34:53;20.80;86.80
29031;DHT22;16122;50.236;11.734;2023-09-30T03:37:19;20.80;86.70
29031;DHT22;16122;50.236;11.734;2023-09-30T03:39:45;20.80;86.60
29031;DHT22;16122;50.236;11.734;2023-09-30T03:42:14;20.80;86.60
29031;DHT22;16122;50.236;11.734;2023-09-30T03:44:40;20.80;86.50
29031;DHT22;16122;50.236;11.734;2023-09-30T03:47:06;20.80;86.50
29031;DHT22;16122;50.236;11.734;2023-09-30T03:49:34;20.80;86.40
29031;DHT22;16122;50.236;11.734;2023-09-30T03:52:00;20.80;86.30
29031;DHT22;16122;50.236;11.734;2023-09-30T03:54:27;20.70;86.10
29031;DHT22;16122;50.236;11.734;2023-09-30T03:56:53;20.70;86.10
29031;DHT22;16122;50.236;11.734;2023-09-30T03:59:18;20.70;86.00
29031;DHT22;16122;50.236;11.734;2023-09-30T04:01:44;20.70;86.00
29031;DHT22;16122;50.236;11.734;2023-09-30T04:04:13;20.70;85.90
29031;DHT22;16122;50.236;11.734;2023-09-30T04:06:39;20.70;85.90
29031;DHT22;16122;50.236;11.734;2023-09-30T04:09:05;20.70;85.90
29031;DHT22;16122;50.236;11.734;2023-09-30T04:11:37;20.70;85.80
29031;DHT22;16122;50.236;11.734;2023-09-30T04:14:05;20.70;85.80
29031;DHT22;16122;50.236;11.734;2023-09-30T04:16:31;20.70;85.60
29031;DHT22;16122;50.236;11.734;2023-09-30T04:18:58;20.70;85.70
29031;DHT22;16122;50.236;11.734;2023-09-30T04:21:23;20.70;85.60
29031;DHT22;16122;50.236;11.734;2023-09-30T04:23:49;20.70;85.50
29031;DHT22;16122;50.236;11.734;2023-09-30T04:26:15;20.70;85.40
29031;DHT22;16122;50.236;11.734;2023-09-30T04:28:41;20.70;85.50
29031;DHT22;16122;50.236;11.734;2023-09-30T04:31:07;20.70;85.30
29031;DHT22;16122;50.236;11.734;2023-09-30T04:33:37;20.70;85.20
29031;DHT22;16122;50.236;11.734;2023-09-30T04:36:03;20.70;85.20
29031;DHT22;16122;50.236;11.734;2023-09-30T04:38:31;20.70;85.20
29031;DHT22;16122;50.236;11.734;2023-09-30T04:40:56;20.70;85.60
29031;DHT22;16122;50.236;11.734;2023-09-30T04:43:23;20.70;85.70
29031;DHT22;16122;50.236;11.734;2023-09-30T04:45:49;20.70;85.60
29031;DHT22;16122;50.236;11.734;2023-09-30T04:48:18;20.70;85.70
29031;DHT22;16122;50.236;11.734;2023-09-30T04:50:44;20.70;85.90
29031;DHT22;16122;50.236;11.734;2023-09-30T04:53:09;20.70;86.10
29031;DHT22;16122;50.236;11.734;2023-09-30T04:55:35;20.70;86.30
29031;DHT22;16122;50.236;11.734;2023-09-30T04:58:04;20.70;86.40
29031;DHT22;16122;50.236;11.734;2023-09-30T05:00:31;20.70;86.40
29031;DHT22;16122;50.236;11.734;2023-09-30T05:02:57;20.70;86.50
29031;DHT22;16122;50.236;11.734;2023-09-30T05:05:24;20.70;86.30
29031;DHT22;16122;50.236;11.734;2023-09-30T05:07:50;20.70;86.30
29031;DHT22;16122;50.236;11.734;2023-09-30T05:10:16;20.70;86.30
29031;DHT22;16122;50.236;11.734;2023-09-30T05:12:43;20.70;86.60
29031;DHT22;16122;50.236;11.734;2023-09-30T05:15:12;20.70;86.30
29031;DHT22;16122;50.236;11.734;2023-09-30T05:17:41;20.70;86.90
29031;DHT22;16122;50.236;11.734;2023-09-30T05:20:10;20.70;87.40
29031;DHT22;16122;50.236;11.734;2023-09-30T05:22:38;20.70;87.30
29031;DHT22;16122;50.236;11.734;2023-09-30T05:25:06;20.70;87.50
29031;DHT22;16122;50.236;11.734;2023-09-30T05:27:33;20.70;87.50
29031;DHT22;16122;50.236;11.734;2023-09-30T05:29:59;20.70;87.50
29031;DHT22;16122;50.236;11.734;2023-09-30T05:32:25;20.70;87.60
29031;DHT22;16122;50.236;11.734;2023-09-30T05:34:52;20.70;87.60
29031;DHT22;16122;50.236;11.734;2023-09-30T05:37:20;20.70;87.60
29031;DHT22;16122;50.236;11.734;2023-09-30T05:39:47;20.70;87.70
29031;DHT22;16122;50.236;11.734;2023-09-30T05:42:15;20.70;87.70
29031;DHT22;16122;50.236;11.734;2023-09-30T05:44:41;20.70;87.70
29031;DHT22;16122;50.236;11.734;2023-09-30T05:47:08;20.70;87.80
29031;DHT22;16122;50.236;11.734;2023-09-30T05:49:34;20.70;88.60
29031;DHT22;16122;50.236;11.734;2023-09-30T05:52:02;20.70;87.90
29031;DHT22;16122;50.236;11.734;2023-09-30T05:54:28;20.70;87.90
29031;DHT22;16122;50.236;11.734;2023-09-30T05:56:54;20.70;87.90
29031;DHT22;16122;50.236;11.734;2023-09-30T05:59:20;20.70;87.80
29031;DHT22;16122;50.236;11.734;2023-09-30T06:01:46;20.70;88.60
29031;DHT22;16122;50.236;11.734;2023-09-30T06:04:12;20.70;87.80
29031;DHT22;16122;50.236;11.734;2023-09-30T06:06:38;20.70;87.60
29031;DHT22;16122;50.236;11.734;2023-09-30T06:09:04;20.70;87.30
29031;DHT22;16122;50.236;11.734;2023-09-30T06:11:33;20.70;87.20
29031;DHT22;16122;50.236;11.734;2023-09-30T06:13:59;20.70;87.40
29031;DHT22;16122;50.236;11.734;2023-09-30T06:16:27;20.70;87.40
29031;DHT22;16122;50.236;11.734;2023-09-30T06:18:53;20.70;87.60
29031;DHT22;16122;50.236;11.734;2023-09-30T06:21:21;20.70;88.00
29031;DHT22;16122;50.236;11.734;2023-09-30T06:23:48;20.70;87.70
29031;DHT22;16122;50.236;11.734;2023-09-30T06:26:14;20.70;87.60
29031;DHT22;16122;50.236;11.734;2023-09-30T06:28:43;20.70;87.50
29031;DHT22;16122;50.236;11.734;2023-09-30T06:31:09;20.70;87.50
29031;DHT22;16122;50.236;11.734;2023-09-30T06:33:36;20.70;87.30
29031;DHT22;16122;50.236;11.734;2023-09-30T06:36:11;20.70;87.20
29031;DHT22;16122;50.236;11.734;2023-09-30T06:38:39;20.70;87.00
29031;DHT22;16122;50.236;11.734;2023-09-30T06:41:06;20.70;86.90
29031;DHT22;16122;50.236;11.734;2023-09-30T06:43:32;20.70;87.00
29031;DHT22;16122;50.236;11.734;2023-09-30T06:45:58;20.70;87.10
29031;DHT22;16122;50.236;11.734;2023-09-30T06:48:24;20.70;86.70
29031;DHT22;16122;50.236;11.734;2023-09-30T06:50:51;20.70;86.40
29031;DHT22;16122;50.236;11.734;2023-09-30T06:53:18;20.70;86.70
29031;DHT22;16122;50.236;11.734;2023-09-30T06:55:45;20.70;86.60
29031;DHT22;16122;50.236;11.734;2023-09-30T06:58:11;20.70;86.90
29031;DHT22;16122;50.236;11.734;2023-09-30T07:00:37;20.70;87.50
29031;DHT22;16122;50.236;11.734;2023-09-30T07:03:05;20.70;85.40
29031;DHT22;16122;50.236;11.734;2023-09-30T07:05:31;20.70;84.90
29031;DHT22;16122;50.236;11.734;2023-09-30T07:07:57;20.70;84.50
29031;DHT22;16122;50.236;11.734;2023-09-30T07:10:23;20.70;85.20
29031;DHT22;16122;50.236;11.734;2023-09-30T07:12:49;20.70;85.50
29031;DHT22;16122;50.236;11.734;2023-09-30T07:15:15;20.70;85.60
29031;DHT22;16122;50.236;11.734;2023-09-30T07:17:42;20.70;85.90
29031;DHT22;16122;50.236;11.734;2023-09-30T07:20:09;20.70;85.90
29031;DHT22;16122;50.236;11.734;2023-09-30T07:22:35;20.70;86.10
29031;DHT22;16122;50.236;11.734;2023-09-30T07:25:01;20.70;85.80
29031;DHT22;16122;50.236;11.734;2023-09-30T07:27:28;20.70;85.40
29031;DHT22;16122;50.236;11.734;2023-09-30T07:29:54;20.70;85.10
29031;DHT22;16122;50.236;11.734;2023-09-30T07:32:19;20.70;84.90
29031;DHT22;16122;50.236;11.734;2023-09-30T07:34:49;20.70;84.80
29031;DHT22;16122;50.236;11.734;2023-09-30T07:37:15;20.70;84.90
29031;DHT22;16122;50.236;11.734;2023-09-30T07:39:43;20.70;84.20
29031;DHT22;16122;50.236;11.734;2023-09-30T07:42:09;20.70;84.30
29031;DHT22;16122;50.236;11.734;2023-09-30T07:44:35;20.70;84.20
29031;DHT22;16122;50.236;11.734;2023-09-30T07:47:04;20.70;84.50
29031;DHT22;16122;50.236;11.734;2023-09-30T07:49:32;20.80;84.80
29031;DHT22;16122;50.236;11.734;2023-09-30T07:51:58;20.80;84.70
29031;DHT22;16122;50.236;11.734;2023-09-30T07:54:24;20.80;85.00
29031;DHT22;16122;50.236;11.734;2023-09-30T07:56:50;20.80;84.90
29031;DHT22;16122;50.236;11.734;2023-09-30T07:59:16;20.80;84.90
29031;DHT22;16122;50.236;11.734;2023-09-30T08:01:42;20.80;84.70
29031;DHT22;16122;50.236;11.734;2023-09-30T08:04:07;20.80;84.70
29031;DHT22;16122;50.236;11.734;2023-09-30T08:06:33;20.80;84.20
29031;DHT22;16122;50.236;11.734;2023-09-30T08:08:59;20.80;84.40
29031;DHT22;16122;50.236;11.734;2023-09-30T08:11:25;20.80;84.30
29031;DHT22;16122;50.236;11.734;2023-09-30T08:13:56;20.80;83.90
29031;DHT22;16122;50.236;11.734;2023-09-30T08:16:24;20.80;83.70
29031;DHT22;16122;50.236;11.734;2023-09-30T08:18:50;20.90;83.50
29031;DHT22;16122;50.236;11.734;2023-09-30T08:21:16;20.80;83.20
29031;DHT22;16122;50.236;11.734;2023-09-30T08:23:41;20.90;83.20
29031;DHT22;16122;50.236;11.734;2023-09-30T08:26:08;20.90;81.50
29031;DHT22;16122;50.236;11.734;2023-09-30T08:28:34;20.90;75.30
29031;DHT22;16122;50.236;11.734;2023-09-30T08:31:04;20.90;76.30
29031;DHT22;16122;50.236;11.734;2023-09-30T08:33:31;20.80;79.50
29031;DHT22;16122;50.236;11.734;2023-09-30T08:36:06;20.80;73.20
29031;DHT22;16122;50.236;11.734;2023-09-30T08:38:39;20.70;68.80
29031;DHT22;16122;50.236;11.734;2023-09-30T08:41:06;20.70;71.00
29031;DHT22;16122;50.236;11.734;2023-09-30T08:43:39;20.70;73.40
29031;DHT22;16122;50.236;11.734;2023-09-30T08:46:06;20.80;75.80
29031;DHT22;16122;50.236;11.734;2023-09-30T08:48:33;20.80;77.20
29031;DHT22;16122;50.236;11.734;2023-09-30T08:51:01;20.80;77.50
29031;DHT22;16122;50.236;11.734;2023-09-30T08:53:29;20.80;77.60
29031;DHT22;16122;50.236;11.734;2023-09-30T08:55:56;20.80;78.30
29031;DHT22;16122;50.236;11.734;2023-09-30T08:58:28;20.80;78.50
29031;DHT22;16122;50.236;11.734;2023-09-30T09:00:55;20.80;78.60
29031;DHT22;16122;50.236;11.734;2023-09-30T09:03:23;20.80;78.80
29031;DHT22;16122;50.236;11.734;2023-09-30T09:05:56;20.80;79.00
29031;DHT22;16122;50.236;11.734;2023-09-30T09:08:24;20.90;79.20
29031;DHT22;16122;50.236;11.734;2023-09-30T09:10:59;20.90;79.00
29031;DHT22;16122;50.236;11.734;2023-09-30T09:13:26;20.90;79.30
29031;DHT22;16122;50.236;11.734;2023-09-30T09:16:10;20.90;79.50
29031;DHT22;16122;50.236;11.734;2023-09-30T09:18:36;20.90;79.40
29031;DHT22;16122;50.236;11.734;2023-09-30T09:21:16;20.90;79.50
29031;DHT22;16122;50.236;11.734;2023-09-30T09:23:47;20.90;79.50
29031;DHT22;16122;50.236;11.734;2023-09-30T09:26:29;20.90;79.40
29031;DHT22;16122;50.236;11.734;2023-09-30T09:29:03;21.00;79.40
29031;DHT22;16122;50.236;11.734;2023-09-30T09:31:36;21.00;79.40
29031;DHT22;16122;50.236;11.734;2023-09-30T09:34:03;21.00;79.20
29031;DHT22;16122;50.236;11.734;2023-09-30T09:36:44;21.00;79.20
29031;DHT22;16122;50.236;11.734;2023-09-30T09:39:11;21.00;79.00
29031;DHT22;16122;50.236;11.734;2023-09-30T09:41:54;21.10;79.00
29031;DHT22;16122;50.236;11.734;2023-09-30T09:44:24;21.10;79.20
29031;DHT22;16122;50.236;11.734;2023-09-30T09:46:53;21.10;79.30
29031;DHT22;16122;50.236;11.734;2023-09-30T09:49:21;21.10;79.40
29031;DHT22;16122;50.236;11.734;2023-09-30T09:51:49;21.10;79.40
29031;DHT22;16122;50.236;11.734;2023-09-30T09:54:17;21.10;79.50
29031;DHT22;16122;50.236;11.734;2023-09-30T09:56:46;21.10;79.60
29031;DHT22;16122;50.236;11.734;2023-09-30T09:59:13;21.10;79.40
29031;DHT22;16122;50.236;11.734;2023-09-30T10:01:42;21.00;71.50
29031;DHT22;16122;50.236;11.734;2023-09-30T10:04:11;21.00;65.70
29031;DHT22;16122;50.236;11.734;2023-09-30T10:06:37;20.90;63.30
29031;DHT22;16122;50.236;11.734;2023-09-30T10:09:09;20.90;62.80
29031;DHT22;16122;50.236;11.734;2023-09-30T10:11:36;20.80;62.60
29031;DHT22;16122;50.236;11.734;2023-09-30T10:14:02;20.70;62.10
29031;DHT22;16122;50.236;11.734;2023-09-30T10:19:09;20.70;61.40
29031;DHT22;16122;50.236;11.734;2023-09-30T10:21:36;20.70;62.70
29031;DHT22;16122;50.236;11.734;2023-09-30T10:35:20;20.60;62.70
29031;DHT22;16122;50.236;11.734;2023-09-30T10:37:47;20.60;61.30
29031;DHT22;16122;50.236;11.734;2023-09-30T10:40:30;20.60;61.50
29031;DHT22;16122;50.236;11.734;2023-09-30T10:42:57;20.60;61.80
29031;DHT22;16122;50.236;11.734;2023-09-30T10:51:11;20.50;60.60
29031;DHT22;16122;50.236;11.734;2023-09-30T10:53:53;20.60;60.20
29031;DHT22;16122;50.236;11.734;2023-09-30T10:56:23;20.60;61.00
29031;DHT22;16122;50.236;11.734;2023-09-30T10:58:51;20.50;59.20
29031;DHT22;16122;50.236;11.734;2023-09-30T11:01:22;20.50;60.00
29031;DHT22;16122;50.236;11.734;2023-09-30T11:03:48;20.50;59.80
29031;DHT22;16122;50.236;11.734;2023-09-30T11:06:18;20.50;59.60
29031;DHT22;16122;50.236;11.734;2023-09-30T11:08:51;20.50;60.40
29031;DHT22;16122;50.236;11.734;2023-09-30T11:11:18;20.50;62.10
29031;DHT22;16122;50.236;11.734;2023-09-30T11:13:44;20.50;62.20
29031;DHT22;16122;50.236;11.734;2023-09-30T11:16:10;20.50;63.40
29031;DHT22;16122;50.236;11.734;2023-09-30T11:18:36;20.50;64.20
29031;DHT22;16122;50.236;11.734;2023-09-30T11:21:12;20.50;62.60
29031;DHT22;16122;50.236;11.734;2023-09-30T11:23:39;20.50;61.50
29031;DHT22;16122;50.236;11.734;2023-09-30T11:26:06;20.50;62.00
29031;DHT22;16122;50.236;11.734;2023-09-30T11:28:42;20.60;61.90
29031;DHT22;16122;50.236;11.734;2023-09-30T11:31:12;20.50;59.60
29031;DHT22;16122;50.236;11.734;2023-09-30T11:33:50;20.50;59.30
29031;DHT22;16122;50.236;11.734;2023-09-30T11:36:21;20.50;59.90
29031;DHT22;16122;50.236;11.734;2023-09-30T11:38:48;20.50;60.90
29031;DHT22;16122;50.236;11.734;2023-09-30T11:41:16;20.50;59.80
29031;DHT22;16122;50.236;11.734;2023-09-30T11:46:56;20.50;60.50
29031;DHT22;16122;50.236;11.734;2023-09-30T11:49:40;20.50;61.00
29031;DHT22;16122;50.236;11.734;2023-09-30T11:52:11;20.50;60.50
29031;DHT22;16122;50.236;11.734;2023-09-30T11:54:42;20.60;61.20
29031;DHT22;16122;50.236;11.734;2023-09-30T11:57:15;20.60;61.00
29031;DHT22;16122;50.236;11.734;2023-09-30T11:59:42;20.60;61.20
29031;DHT22;16122;50.236;11.734;2023-09-30T12:02:09;20.60;60.90
29031;DHT22;16122;50.236;11.734;2023-09-30T12:04:36;20.60;62.30
29031;DHT22;16122;50.236;11.734;2023-09-30T12:07:02;20.60;60.30
29031;DHT22;16122;50.236;11.734;2023-09-30T12:09:28;20.60;59.60
29031;DHT22;16122;50.236;11.734;2023-09-30T12:11:55;20.60;60.30
29031;DHT22;16122;50.236;11.734;2023-09-30T12:14:24;20.60;60.80
29031;DHT22;16122;50.236;11.734;2023-09-30T12:16:50;20.60;61.00
29031;DHT22;16122;50.236;11.734;2023-09-30T12:19:17;20.60;62.80
29031;DHT22;16122;50.236;11.734;2023-09-30T12:21:44;20.60;60.20
29031;DHT22;16122;50.236;11.734;2023-09-30T12:24:13;20.60;58.70
29031;DHT22;16122;50.236;11.734;2023-09-30T12:26:45;20.60;59.40
29031;DHT22;16122;50.236;11.734;2023-09-30T12:29:17;20.60;60.00
29031;DHT22;16122;50.236;11.734;2023-09-30T12:31:46;20.60;61.10
29031;DHT22;16122;50.236;11.734;2023-09-30T12:34:13;20.60;62.80
29031;DHT22;16122;50.236;11.734;2023-09-30T12:36:39;20.60;63.40
29031;DHT22;16122;50.236;11.734;2023-09-30T12:39:05;20.70;64.30
29031;DHT22;16122;50.236;11.734;2023-09-30T12:41:42;20.70;64.90
29031;DHT22;16122;50.236;11.734;2023-09-30T12:44:10;20.70;65.40
29031;DHT22;16122;50.236;11.734;2023-09-30T12:46:36;20.70;65.80
29031;DHT22;16122;50.236;11.734;2023-09-30T12:49:06;20.70;66.00
29031;DHT22;16122;50.236;11.734;2023-09-30T12:51:33;20.70;66.20
29031;DHT22;16122;50.236;11.734;2023-09-30T12:54:00;20.70;66.40
29031;DHT22;16122;50.236;11.734;2023-09-30T12:56:26;20.70;66.70
29031;DHT22;16122;50.236;11.734;2023-09-30T12:58:52;20.70;66.80
29031;DHT22;16122;50.236;11.734;2023-09-30T13:01:19;20.80;67.10
29031;DHT22;16122;50.236;11.734;2023-09-30T13:03:46;20.80;67.20
29031;DHT22;16122;50.236;11.734;2023-09-30T13:06:12;20.80;67.40
29031;DHT22;16122;50.236;11.734;2023-09-30T13:08:37;20.80;67.60
29031;DHT22;16122;50.236;11.734;2023-09-30T13:11:04;20.80;67.70
29031;DHT22;16122;50.236;11.734;2023-09-30T13:13:31;20.80;67.90
29031;DHT22;16122;50.236;11.734;2023-09-30T13:16:00;20.80;68.00
29031;DHT22;16122;50.236;11.734;2023-09-30T13:18:25;20.80;68.90
29031;DHT22;16122;50.236;11.734;2023-09-30T13:20:51;20.80;68.30
29031;DHT22;16122;50.236;11.734;2023-09-30T13:23:20;20.80;68.40
29031;DHT22;16122;50.236;11.734;2023-09-30T13:25:46;20.80;68.50
29031;DHT22;16122;50.236;11.734;2023-09-30T13:28:13;20.80;68.70
29031;DHT22;16122;50.236;11.734;2023-09-30T13:30:39;20.80;68.80
29031;DHT22;16122;50.236;11.734;2023-09-30T13:33:05;20.80;68.80
29031;DHT22;16122;50.236;11.734;2023-09-30T13:35:31;20.80;68.90
29031;DHT22;16122;50.236;11.734;2023-09-30T13:37:58;20.80;69.10
29031;DHT22;16122;50.236;11.734;2023-09-30T13:40:23;20.80;66.10
29031;DHT22;16122;50.236;11.734;2023-09-30T13:42:49;20.80;67.90
29031;DHT22;16122;50.236;11.734;2023-09-30T13:45:15;20.80;67.70
29031;DHT22;16122;50.236;11.734;2023-09-30T13:47:44;20.80;67.40
29031;DHT22;16122;50.236;11.734;2023-09-30T13:50:10;20.80;65.50
29031;DHT22;16122;50.236;11.734;2023-09-30T13:52:36;20.80;67.20
29031;DHT22;16122;50.236;11.734;2023-09-30T13:55:03;20.80;67.70
29031;DHT22;16122;50.236;11.734;2023-09-30T13:57:30;20.90;67.40
29031;DHT22;16122;50.236;11.734;2023-09-30T13:59:56;20.90;68.00
29031;DHT22;16122;50.236;11.734;2023-09-30T14:02:22;20.90;69.20
29031;DHT22;16122;50.236;11.734;2023-09-30T14:04:49;20.90;70.30
29031;DHT22;16122;50.236;11.734;2023-09-30T14:07:15;20.90;69.90
29031;DHT22;16122;50.236;11.734;2023-09-30T14:09:44;20.90;69.80
29031;DHT22;16122;50.236;11.734;2023-09-30T14:12:10;20.90;68.60
29031;DHT22;16122;50.236;11.734;2023-09-30T14:14:35;20.90;66.90
29031;DHT22;16122;50.236;11.734;2023-09-30T14:17:02;20.90;64.80
29031;DHT22;16122;50.236;11.734;2023-09-30T14:19:34;20.90;66.50
29031;DHT22;16122;50.236;11.734;2023-09-30T14:22:00;20.90;65.90
29031;DHT22;16122;50.236;11.734;2023-09-30T14:24:26;20.90;67.20
29031;DHT22;16122;50.236;11.734;2023-09-30T14:26:52;20.90;63.40
29031;DHT22;16122;50.236;11.734;2023-09-30T14:29:18;20.90;64.80
29031;DHT22;16122;50.236;11.734;2023-09-30T14:31:43;20.90;64.40
29031;DHT22;16122;50.236;11.734;2023-09-30T14:34:09;20.90;63.20
29031;DHT22;16122;50.236;11.734;2023-09-30T14:36:35;20.90;63.00
29031;DHT22;16122;50.236;11.734;2023-09-30T14:39:01;20.90;63.00
29031;DHT22;16122;50.236;11.734;2023-09-30T14:41:27;20.90;63.20
29031;DHT22;16122;50.236;11.734;2023-09-30T14:43:53;20.90;59.30
29031;DHT22;16122;50.236;11.734;2023-09-30T14:46:18;20.90;63.00
29031;DHT22;16122;50.236;11.734;2023-09-30T14:48:45;20.90;63.20
29031;DHT22;16122;50.236;11.734;2023-09-30T14:51:11;20.90;64.00
29031;DHT22;16122;50.236;11.734;2023-09-30T14:53:37;20.90;64.60
29031;DHT22;16122;50.236;11.734;2023-09-30T14:56:03;20.90;58.20
29031;DHT22;16122;50.236;11.734;2023-09-30T14:58:31;20.90;59.10
29031;DHT22;16122;50.236;11.734;2023-09-30T15:00:57;20.80;57.50
29031;DHT22;16122;50.236;11.734;2023-09-30T15:03:23;20.80;60.70
29031;DHT22;16122;50.236;11.734;2023-09-30T15:05:57;20.90;62.10
29031;DHT22;16122;50.236;11.734;2023-09-30T15:08:24;20.90;62.50
29031;DHT22;16122;50.236;11.734;2023-09-30T15:10:49;20.90;63.00
29031;DHT22;16122;50.236;11.734;2023-09-30T15:13:15;20.90;63.60
29031;DHT22;16122;50.236;11.734;2023-09-30T15:15:41;20.90;63.70
29031;DHT22;16122;50.236;11.734;2023-09-30T15:18:07;20.90;63.90
29031;DHT22;16122;50.236;11.734;2023-09-30T15:20:40;20.90;64.70
29031;DHT22;16122;50.236;11.734;2023-09-30T15:23:06;21.00;65.10
29031;DHT22;16122;50.236;11.734;2023-09-30T15:25:32;21.00;65.40
29031;DHT22;16122;50.236;11.734;2023-09-30T15:27:58;21.00;65.20
29031;DHT22;16122;50.236;11.734;2023-09-30T15:30:23;21.00;65.60
29031;DHT22;16122;50.236;11.734;2023-09-30T15:32:49;21.00;66.00
29031;DHT22;16122;50.236;11.734;2023-09-30T15:35:15;21.00;66.10
29031;DHT22;16122;50.236;11.734;2023-09-30T15:37:41;21.00;66.50
29031;DHT22;16122;50.236;11.734;2023-09-30T15:40:07;21.00;66.50